createdAt,value
2022-09-03T00:00:58.530Z,100990.16
2022-09-03T00:03:33.987Z,100986.03
2022-09-03T00:06:20.760Z,100988.13
2022-09-03T00:09:13.271Z,100996.97
2022-09-03T00:11:51.120Z,100986.75
2022-09-03T00:14:25.170Z,100981.78
2022-09-03T00:17:03.157Z,100989.66
2022-09-03T00:19:41.429Z,100995.94
2022-09-03T00:22:18.988Z,100991.59
2022-09-03T00:24:50.252Z,100996.13
2022-09-03T00:27:25.920Z,100989.94
2022-09-03T00:30:05.439Z,100988.31
2022-09-03T00:32:54.556Z,100986.75
2022-09-03T00:35:34.170Z,100991.34
2022-09-03T00:38:01.719Z,100993.22
2022-09-03T00:41:07.443Z,100988.81
2022-09-03T00:44:08.139Z,100990.03
2022-09-03T00:47:01.974Z,100990.28
2022-09-03T00:50:26.031Z,100995.78
2022-09-03T00:53:03.110Z,100991.38
2022-09-03T00:55:51.272Z,100988.97
2022-09-03T00:58:37.801Z,100989.34
2022-09-03T01:01:36.622Z,100995.69
2022-09-03T01:04:39.148Z,100997.63
2022-09-03T01:07:43.652Z,100993.41
2022-09-03T01:10:32.294Z,100997.00
2022-09-03T01:13:11.899Z,100998.13
2022-09-03T01:16:09.311Z,100994.59
2022-09-03T01:18:59.983Z,100998.19
2022-09-03T01:22:26.660Z,101000.81
2022-09-03T01:25:45.816Z,101000.19
2022-09-03T01:28:42.288Z,100998.44
2022-09-03T01:31:29.433Z,100997.66
2022-09-03T01:34:44.982Z,100996.81
2022-09-03T01:37:11.888Z,100993.38
2022-09-03T01:39:56.831Z,100997.75
2022-09-03T01:43:04.047Z,100994.41
2022-09-03T01:45:51.413Z,100997.06
2022-09-03T01:48:44.069Z,100997.06
2022-09-03T01:51:24.263Z,100990.13
2022-09-03T01:54:31.173Z,100993.88
2022-09-03T01:57:35.252Z,100989.66
2022-09-03T02:00:13.804Z,100998.66
2022-09-03T02:02:46.494Z,100990.81
2022-09-03T02:05:24.661Z,100999.78
2022-09-03T02:08:01.177Z,100997.88
2022-09-03T02:10:54.414Z,100995.22
2022-09-03T02:13:31.554Z,100992.75
2022-09-03T02:16:11.048Z,100990.38
2022-09-03T02:18:46.107Z,100990.56
2022-09-03T02:21:20.248Z,100995.16
2022-09-03T02:23:49.787Z,100991.75
2022-09-03T02:26:22.775Z,100985.63
2022-09-03T02:28:52.298Z,100995.41
2022-09-03T02:31:19.589Z,100993.84
2022-09-03T02:33:50.143Z,100996.56
2022-09-03T02:36:27.478Z,100992.28
2022-09-03T02:38:55.171Z,100992.38
2022-09-03T02:41:22.807Z,100988.09
2022-09-03T02:44:06.352Z,100997.16
2022-09-03T02:46:40.959Z,100993.78
2022-09-03T02:49:08.491Z,100995.66
2022-09-03T02:51:42.634Z,100994.03
2022-09-03T02:54:11.963Z,100988.75
2022-09-03T02:56:39.711Z,100996.81
2022-09-03T02:59:09.859Z,100991.66
2022-09-03T03:01:37.922Z,100984.72
2022-09-03T03:04:05.855Z,100988.28
2022-09-03T03:06:33.311Z,100991.97
2022-09-03T03:09:01.675Z,100992.22
2022-09-03T03:11:29.105Z,100985.25
2022-09-03T03:13:56.370Z,100990.72
2022-09-03T03:16:23.524Z,100982.66
2022-09-03T03:18:50.847Z,100981.72
2022-09-03T03:21:19.614Z,100980.00
2022-09-03T03:23:49.163Z,100978.38
2022-09-03T03:26:19.995Z,100979.44
2022-09-03T03:28:49.212Z,100971.63
2022-09-03T03:31:20.536Z,100976.06
2022-09-03T03:34:02.700Z,100980.84
2022-09-03T03:36:34.079Z,100972.31
2022-09-03T03:39:03.145Z,100982.94
2022-09-03T03:41:36.028Z,100980.19
2022-09-03T03:44:06.859Z,100974.19
2022-09-03T03:46:41.169Z,100982.16
2022-09-03T03:49:10.372Z,100980.50
2022-09-03T03:51:39.412Z,100978.84
2022-09-03T03:54:06.918Z,100979.84
2022-09-03T03:56:35.337Z,100980.97
2022-09-03T03:59:03.964Z,100981.94
2022-09-03T04:01:31.482Z,100978.59
2022-09-03T04:04:02.380Z,100975.00
2022-09-03T04:06:29.614Z,100976.00
2022-09-03T04:08:56.953Z,100976.09
2022-09-03T04:11:24.977Z,100977.09
2022-09-03T04:13:53.399Z,100975.34
2022-09-03T04:16:24.525Z,100974.75
2022-09-03T04:18:56.338Z,100968.53
2022-09-03T04:21:29.111Z,100968.63
2022-09-03T04:23:58.138Z,100963.53
2022-09-03T04:26:31.927Z,100969.00
2022-09-03T04:29:03.998Z,100964.69
2022-09-03T04:31:32.946Z,100968.44
2022-09-03T04:34:00.279Z,100965.84
2022-09-03T04:36:30.915Z,100967.72
2022-09-03T04:39:01.930Z,100965.13
2022-09-03T04:41:31.491Z,100962.41
2022-09-03T04:43:59.928Z,100958.91
2022-09-03T04:46:33.478Z,100965.06
2022-09-03T04:49:02.198Z,100962.41
2022-09-03T04:51:30.240Z,100965.13
2022-09-03T04:54:02.147Z,100966.94
2022-09-03T04:56:35.639Z,100962.34
2022-09-03T04:59:09.574Z,100962.34
2022-09-03T05:01:39.819Z,100962.34
2022-09-03T05:04:08.422Z,100970.09
2022-09-03T05:06:37.325Z,100974.59
2022-09-03T05:09:05.981Z,100971.81
2022-09-03T05:11:33.252Z,100972.44
2022-09-03T05:14:01.024Z,100975.81
2022-09-03T05:16:30.800Z,100968.97
2022-09-03T05:19:01.060Z,100969.66
2022-09-03T05:21:29.939Z,100959.78
2022-09-03T05:23:57.817Z,100959.25
2022-09-03T05:26:28.862Z,100961.72
2022-09-03T05:29:01.199Z,100966.59
2022-09-03T05:31:32.011Z,100962.59
2022-09-03T05:34:03.642Z,100965.28
2022-09-03T05:36:35.159Z,100967.63
2022-09-03T05:39:03.523Z,100963.03
2022-09-03T05:41:36.135Z,100968.97
2022-09-03T05:44:06.102Z,100976.50
2022-09-03T05:46:34.397Z,100972.09
2022-09-03T05:49:05.284Z,100977.44
2022-09-03T05:51:34.926Z,100978.31
2022-09-03T05:54:03.638Z,100975.25
2022-09-03T05:56:42.569Z,100983.59
2022-09-03T05:59:11.932Z,100985.00
2022-09-03T06:01:43.196Z,100984.38
2022-09-03T06:04:15.210Z,100984.13
2022-09-03T06:06:47.834Z,100980.97
2022-09-03T06:09:20.457Z,100976.88
2022-09-03T06:11:50.198Z,100979.03
2022-09-03T06:14:18.537Z,100979.03
2022-09-03T06:16:52.843Z,100981.63
2022-09-03T06:19:20.743Z,100979.56
2022-09-03T06:21:48.197Z,100979.16
2022-09-03T06:24:19.269Z,100981.66
2022-09-03T06:26:47.294Z,100977.84
2022-09-03T06:29:19.875Z,100984.59
2022-09-03T06:31:48.586Z,100984.44
2022-09-03T06:34:18.792Z,100983.13
2022-09-03T06:36:46.256Z,100985.31
2022-09-03T06:39:14.393Z,100986.75
2022-09-03T06:41:41.594Z,100988.91
2022-09-03T06:44:12.333Z,100987.00
2022-09-03T06:46:44.077Z,100985.53
2022-09-03T06:49:11.914Z,100987.66
2022-09-03T06:51:40.610Z,100984.41
2022-09-03T06:54:11.500Z,100975.97
2022-09-03T06:56:41.610Z,100978.66
2022-09-03T06:59:12.782Z,100976.41
2022-09-03T07:01:45.541Z,100984.84
2022-09-03T07:04:16.892Z,100980.75
2022-09-03T07:06:47.242Z,100983.63
2022-09-03T07:09:15.879Z,100983.66
2022-09-03T07:11:48.133Z,100974.69
2022-09-03T07:14:21.298Z,100974.47
2022-09-03T07:16:51.059Z,100985.47
2022-09-03T07:19:18.710Z,100981.56
2022-09-03T07:21:49.754Z,100980.22
2022-09-03T07:24:21.881Z,100980.22
2022-09-03T07:26:49.489Z,100977.59
2022-09-03T07:29:21.794Z,100975.19
2022-09-03T07:31:51.884Z,100979.94
2022-09-03T07:34:25.594Z,100974.69
2022-09-03T07:36:54.464Z,100968.66
2022-09-03T07:39:22.850Z,100972.44
2022-09-03T07:41:50.273Z,100973.34
2022-09-03T07:44:19.988Z,100973.56
2022-09-03T07:46:50.071Z,100974.34
2022-09-03T07:49:17.337Z,100975.00
2022-09-03T07:51:46.508Z,100969.84
2022-09-03T07:54:13.706Z,100972.63
2022-09-03T07:56:41.053Z,100975.63
2022-09-03T07:59:09.228Z,100971.34
2022-09-03T08:01:38.409Z,100977.66
2022-09-03T08:04:10.849Z,100967.97
2022-09-03T08:06:39.292Z,100971.81
2022-09-03T08:09:13.858Z,100974.03
2022-09-03T08:11:43.855Z,100972.41
2022-09-03T08:14:14.122Z,100974.88
2022-09-03T08:16:49.741Z,100979.69
2022-09-03T08:19:18.879Z,100979.13
2022-09-03T08:21:46.561Z,100980.59
2022-09-03T08:24:17.931Z,100989.25
2022-09-03T08:26:51.134Z,100987.94
2022-09-03T08:29:19.595Z,100988.50
2022-09-03T08:31:46.973Z,100984.38
2022-09-03T08:34:14.908Z,100981.22
2022-09-03T08:36:42.360Z,100989.56
2022-09-03T08:39:11.672Z,100995.22
2022-09-03T08:41:51.007Z,100989.88
2022-09-03T08:44:30.389Z,100986.72
2022-09-03T08:47:22.494Z,100992.13
2022-09-03T08:49:56.623Z,100984.84
2022-09-03T08:52:37.244Z,100990.00
2022-09-03T08:55:52.531Z,100989.25
2022-09-03T08:58:27.680Z,100984.03
2022-09-03T09:01:31.920Z,100985.63
2022-09-03T09:04:11.420Z,100984.41
2022-09-03T09:07:25.912Z,100988.31
2022-09-03T09:10:36.581Z,100985.00
2022-09-03T09:13:31.036Z,100982.53
2022-09-03T09:16:21.904Z,100989.84
2022-09-03T09:19:05.107Z,100988.16
2022-09-03T09:21:46.027Z,100980.31
2022-09-03T09:24:27.198Z,100977.00
2022-09-03T09:27:00.294Z,100975.25
2022-09-03T09:29:38.005Z,100978.88
2022-09-03T09:32:10.430Z,100980.78
2022-09-03T09:34:41.909Z,100987.00
2022-09-03T09:37:17.120Z,100990.53
2022-09-03T09:39:58.929Z,100985.19
2022-09-03T09:42:29.973Z,100991.16
2022-09-03T09:44:57.049Z,100986.94
2022-09-03T09:47:38.471Z,100982.47
2022-09-03T09:50:26.294Z,100992.47
2022-09-03T09:53:14.336Z,100993.06
2022-09-03T09:55:58.151Z,100988.28
2022-09-03T09:58:30.899Z,100982.69
2022-09-03T10:01:13.193Z,100989.44
2022-09-03T10:04:24.691Z,100990.91
2022-09-03T10:07:02.638Z,100980.44
2022-09-03T10:09:33.284Z,100984.88
2022-09-03T10:12:24.662Z,100991.09
2022-09-03T10:15:03.729Z,100981.59
2022-09-03T10:17:52.217Z,100974.50
2022-09-03T10:20:44.860Z,100983.00
2022-09-03T10:23:30.254Z,100971.84
2022-09-03T10:26:07.419Z,100972.38
2022-09-03T10:28:42.706Z,100972.94
2022-09-03T10:32:02.208Z,100958.34
2022-09-03T10:34:42.555Z,100965.47
2022-09-03T10:37:41.057Z,100964.63
2022-09-03T10:40:28.787Z,100961.63
2022-09-03T10:43:12.310Z,100963.03
2022-09-03T10:46:10.738Z,100966.16
2022-09-03T10:49:08.840Z,100960.97
2022-09-03T10:52:25.589Z,100961.81
2022-09-03T10:55:05.677Z,100960.97
2022-09-03T10:58:05.523Z,100957.66
2022-09-03T11:00:39.230Z,100958.34
2022-09-03T11:03:38.983Z,100953.19
2022-09-03T11:06:20.074Z,100959.19
2022-09-03T11:09:06.653Z,100963.63
2022-09-03T11:11:45.555Z,100956.66
2022-09-03T11:14:20.943Z,100952.81
2022-09-03T11:16:54.872Z,100951.78
2022-09-03T11:19:35.198Z,100950.63
2022-09-03T11:22:06.467Z,100947.16
2022-09-03T11:24:35.268Z,100946.13
2022-09-03T11:27:25.215Z,100948.00
2022-09-03T11:30:14.686Z,100944.88
2022-09-03T11:33:11.633Z,100942.13
2022-09-03T11:35:42.882Z,100948.63
2022-09-03T11:38:16.610Z,100943.38
2022-09-03T11:41:15.711Z,100948.34
2022-09-03T11:43:44.189Z,100942.22
2022-09-03T11:46:28.915Z,100934.28
2022-09-03T11:49:28.090Z,100938.88
2022-09-03T11:52:05.408Z,100933.41
2022-09-03T11:54:46.863Z,100937.75
2022-09-03T11:57:21.990Z,100933.44
2022-09-03T11:59:49.186Z,100934.69
2022-09-03T12:02:29.694Z,100929.66
2022-09-03T12:05:24.608Z,100928.97
2022-09-03T12:08:08.974Z,100934.41
2022-09-03T12:11:19.756Z,100926.50
2022-09-03T12:13:56.554Z,100935.28
2022-09-03T12:16:41.995Z,100927.53
2022-09-03T12:19:52.929Z,100929.41
2022-09-03T12:22:24.040Z,100924.88
2022-09-03T12:24:52.043Z,100912.81
2022-09-03T12:27:24.809Z,100923.59
2022-09-03T12:30:00.010Z,100923.88
2022-09-03T12:32:32.466Z,100921.50
2022-09-03T12:35:12.029Z,100922.22
2022-09-03T12:40:31.016Z,100922.38
2022-09-03T12:46:12.986Z,100919.78
2022-09-03T12:51:50.809Z,100918.28
2022-09-03T12:54:20.963Z,100916.94
2022-09-03T12:56:57.971Z,100917.59
2022-09-03T12:59:32.186Z,100916.88
2022-09-03T13:02:21.418Z,100928.22
2022-09-03T13:04:49.684Z,100935.88
2022-09-03T13:07:37.360Z,100932.84
2022-09-03T13:10:15.744Z,100926.75
2022-09-03T13:12:52.941Z,100932.69
2022-09-03T13:15:24.227Z,100923.41
2022-09-03T13:18:45.373Z,100917.47
2022-09-03T13:21:27.364Z,100921.31
2022-09-03T13:24:09.847Z,100919.63
2022-09-03T13:27:08.403Z,100922.31
2022-09-03T13:29:43.780Z,100922.66
2022-09-03T13:32:18.227Z,100912.81
2022-09-03T13:35:00.272Z,100917.22
2022-09-03T13:37:58.123Z,100915.91
2022-09-03T13:40:55.567Z,100910.16
2022-09-03T13:43:48.317Z,100909.47
2022-09-03T13:46:30.043Z,100906.97
2022-09-03T13:49:28.065Z,100909.72
2022-09-03T13:52:07.622Z,100911.41
2022-09-03T13:55:03.820Z,100906.66
2022-09-03T13:57:35.348Z,100904.44
2022-09-03T14:00:13.416Z,100900.00
2022-09-03T14:02:58.491Z,100900.88
2022-09-03T14:06:02.048Z,100899.84
2022-09-03T14:08:58.667Z,100896.44
2022-09-03T14:11:58.172Z,100896.94
2022-09-03T14:14:54.854Z,100897.81
2022-09-03T14:18:32.169Z,100902.88
2022-09-03T14:21:13.333Z,100894.06
2022-09-03T14:24:26.257Z,100897.25
2022-09-03T14:27:04.636Z,100890.06
2022-09-03T14:29:34.999Z,100897.38
2022-09-03T14:32:44.722Z,100890.69
2022-09-03T14:35:27.830Z,100890.16
2022-09-03T14:38:21.575Z,100900.91
2022-09-03T14:41:38.276Z,100900.53
2022-09-03T14:44:54.269Z,100904.47
2022-09-03T14:47:56.703Z,100897.97
2022-09-03T14:51:12.997Z,100895.63
2022-09-03T14:53:59.331Z,100904.41
2022-09-03T14:57:00.420Z,100899.19
2022-09-03T15:00:01.415Z,100890.03
2022-09-03T15:02:34.617Z,100892.22
2022-09-03T15:05:43.108Z,100898.53
2022-09-03T15:08:47.092Z,100895.81
2022-09-03T15:11:22.835Z,100890.72
2022-09-03T15:14:04.410Z,100894.84
2022-09-03T15:16:49.519Z,100891.09
2022-09-03T15:19:37.084Z,100897.84
2022-09-03T15:22:43.983Z,100892.88
2022-09-03T15:25:20.622Z,100889.16
2022-09-03T15:28:11.772Z,100887.75
2022-09-03T15:30:54.597Z,100894.22
2022-09-03T15:33:36.158Z,100898.34
2022-09-03T15:36:23.685Z,100902.56
2022-09-03T15:39:03.497Z,100902.22
2022-09-03T15:42:10.318Z,100898.44
2022-09-03T15:44:50.151Z,100900.19
2022-09-03T15:47:50.941Z,100895.09
2022-09-03T15:50:50.560Z,100914.81
2022-09-03T15:53:34.138Z,100913.84
2022-09-03T15:56:19.631Z,100910.31
2022-09-03T15:59:30.781Z,100911.38
2022-09-03T16:02:12.445Z,100908.84
2022-09-03T16:05:06.087Z,100907.31
2022-09-03T16:07:35.839Z,100908.31
2022-09-03T16:10:23.746Z,100915.78
2022-09-03T16:13:09.325Z,100918.16
2022-09-03T16:15:57.889Z,100915.09
2022-09-03T16:19:00.343Z,100911.38
2022-09-03T16:21:42.539Z,100914.75
2022-09-03T16:24:17.248Z,100915.47
2022-09-03T16:26:56.723Z,100912.59
2022-09-03T16:29:31.715Z,100915.63
2022-09-03T16:32:17.743Z,100917.69
2022-09-03T16:35:14.813Z,100920.34
2022-09-03T16:38:04.624Z,100917.28
2022-09-03T16:40:44.428Z,100929.75
2022-09-03T16:43:52.084Z,100919.50
2022-09-03T16:46:35.633Z,100920.44
2022-09-03T16:49:16.681Z,100931.38
2022-09-03T16:52:37.863Z,100931.97
2022-09-03T16:55:18.675Z,100937.06
2022-09-03T16:58:15.997Z,100938.63
2022-09-03T17:01:10.290Z,100932.22
2022-09-03T17:04:06.521Z,100939.56
2022-09-03T17:06:52.223Z,100941.41
2022-09-03T17:09:42.479Z,100948.03
2022-09-03T17:12:33.751Z,100940.25
2022-09-03T17:15:23.208Z,100946.19
2022-09-03T17:18:30.941Z,100949.53
2022-09-03T17:21:32.561Z,100945.63
2022-09-03T17:24:36.505Z,100945.13
2022-09-03T17:27:32.270Z,100947.44
2022-09-03T17:30:19.329Z,100948.50
2022-09-03T17:33:35.275Z,100950.66
2022-09-03T17:36:22.674Z,100951.66
2022-09-03T17:39:46.901Z,100957.22
2022-09-03T17:42:30.233Z,100963.91
2022-09-03T17:45:34.133Z,100954.28
2022-09-03T17:48:43.212Z,100957.22
2022-09-03T17:51:50.430Z,100954.69
2022-09-03T17:54:23.535Z,100956.91
2022-09-03T17:57:15.324Z,100961.72
2022-09-03T18:00:07.943Z,100964.69
2022-09-03T18:02:52.524Z,100975.72
2022-09-03T18:05:46.575Z,100975.97
2022-09-03T18:08:26.701Z,100981.44
2022-09-03T18:11:14.143Z,100993.16
2022-09-03T18:14:28.726Z,100990.53
2022-09-03T18:17:13.663Z,100994.44
2022-09-03T18:20:21.675Z,101003.31
2022-09-03T18:23:36.856Z,101011.56
2022-09-03T18:26:32.351Z,101012.50
2022-09-03T18:29:29.958Z,101015.19
2022-09-03T18:32:15.841Z,101022.59
2022-09-03T18:35:01.712Z,101019.84
2022-09-03T18:37:47.521Z,101023.41
2022-09-03T18:40:41.746Z,101026.16
2022-09-03T18:43:55.292Z,101033.38
2022-09-03T18:50:44.778Z,101033.63
2022-09-03T18:53:42.880Z,101030.19
2022-09-03T18:56:53.709Z,101032.03
2022-09-03T18:59:56.186Z,101044.59
2022-09-03T19:03:01.964Z,101041.78
2022-09-03T19:05:56.872Z,101048.72
2022-09-03T19:08:42.261Z,101045.25
2022-09-03T19:11:47.155Z,101051.09
2022-09-03T19:14:58.105Z,101045.94
2022-09-03T19:18:20.844Z,101057.13
2022-09-03T19:21:34.965Z,101063.19
2022-09-03T19:24:21.637Z,101064.84
2022-09-03T19:27:50.936Z,101063.00
2022-09-03T19:30:43.520Z,101070.75
2022-09-03T19:34:22.072Z,101068.84
2022-09-03T19:37:44.914Z,101076.69
2022-09-03T19:41:17.596Z,101072.84
2022-09-03T19:44:37.589Z,101081.56
2022-09-03T19:47:27.468Z,101087.59
2022-09-03T19:50:36.880Z,101079.25
2022-09-03T19:53:30.377Z,101078.91
2022-09-03T19:56:23.807Z,101091.91
2022-09-03T19:59:22.723Z,101091.81
2022-09-03T20:02:10.776Z,101095.00
2022-09-03T20:05:41.973Z,101099.13
2022-09-03T20:08:33.806Z,101095.31
2022-09-03T20:11:04.259Z,101102.97
2022-09-03T20:13:52.792Z,101099.78
2022-09-03T20:16:34.892Z,101103.59
2022-09-03T20:19:15.234Z,101104.16
2022-09-03T20:21:59.673Z,101108.09
2022-09-03T20:24:49.445Z,101113.84
2022-09-03T20:27:38.747Z,101116.84
2022-09-03T20:30:13.294Z,101120.78
2022-09-03T20:33:17.750Z,101120.88
2022-09-03T20:36:47.292Z,101115.22
2022-09-03T20:39:34.913Z,101116.84
2022-09-03T20:42:34.976Z,101127.53
2022-09-03T20:45:30.806Z,101135.69
2022-09-03T20:48:25.273Z,101136.44
2022-09-03T20:51:12.225Z,101141.03
2022-09-03T20:54:09.861Z,101141.78
2022-09-03T20:57:06.540Z,101144.34
2022-09-03T20:59:59.382Z,101145.44
2022-09-03T21:02:56.681Z,101149.19
2022-09-03T21:05:57.930Z,101149.19
2022-09-03T21:09:02.016Z,101151.09
2022-09-03T21:12:13.257Z,101151.28
2022-09-03T21:14:58.828Z,101155.88
2022-09-03T21:18:13.380Z,101155.97
2022-09-03T21:21:11.933Z,101155.22
2022-09-03T21:24:19.963Z,101157.81
2022-09-03T21:26:57.057Z,101164.13
2022-09-03T21:29:37.895Z,101172.16
2022-09-03T21:32:14.507Z,101164.50
2022-09-03T21:35:06.331Z,101167.41
2022-09-03T21:37:41.971Z,101169.38
2022-09-03T21:40:13.266Z,101167.78
2022-09-03T21:43:20.404Z,101165.09
2022-09-03T21:46:01.860Z,101162.31
2022-09-03T21:48:54.842Z,101165.88
2022-09-03T21:51:37.147Z,101172.94
2022-09-03T21:54:34.172Z,101169.63
2022-09-03T21:57:22.241Z,101174.31
2022-09-03T22:00:12.511Z,101172.84
2022-09-03T22:02:42.394Z,101177.44
2022-09-03T22:05:09.875Z,101179.34
2022-09-03T22:08:07.248Z,101176.78
2022-09-03T22:10:47.669Z,101189.28
2022-09-03T22:14:07.274Z,101200.19
2022-09-03T22:17:02.842Z,101194.25
2022-09-03T22:19:37.391Z,101194.53
2022-09-03T22:22:22.571Z,101194.72
2022-09-03T22:25:08.982Z,101196.63
2022-09-03T22:27:54.494Z,101194.25
2022-09-03T22:30:23.593Z,101199.81
2022-09-03T22:33:10.886Z,101200.09
2022-09-03T22:36:11.949Z,101199.44
2022-09-03T22:39:23.691Z,101206.88
2022-09-03T22:42:10.146Z,101195.69
2022-09-03T22:45:08.287Z,101206.59
2022-09-03T22:47:47.599Z,101205.03
2022-09-03T22:50:33.555Z,101208.00
2022-09-03T22:53:08.982Z,101202.84
2022-09-03T22:55:45.567Z,101203.13
2022-09-03T22:58:23.068Z,101210.47
2022-09-03T23:01:03.384Z,101207.22
2022-09-03T23:03:42.251Z,101213.78
2022-09-03T23:06:41.318Z,101216.88
2022-09-03T23:09:19.406Z,101217.16
2022-09-03T23:12:06.917Z,101218.28
2022-09-03T23:14:48.656Z,101214.94
2022-09-03T23:22:40.528Z,101221.75
2022-09-03T23:25:24.398Z,101229.88
2022-09-03T23:28:33.838Z,101223.06
2022-09-03T23:31:23.587Z,101226.00
2022-09-03T23:33:56.100Z,101230.75
2022-09-03T23:37:29.217Z,101233.69
2022-09-03T23:39:52.794Z,101224.22
2022-09-03T23:43:00.442Z,101238.69
2022-09-03T23:46:14.599Z,101236.28
2022-09-03T23:49:29.106Z,101234.72
2022-09-03T23:52:19.079Z,101238.59
2022-09-03T23:54:54.526Z,101237.91
2022-09-03T23:57:41.167Z,101237.25
